Time;durP1;ratioP1;P1;durP2;ratioP2;P2;SDS_P1;SDS_P2;PMS_P1;PMS_P2;Temp;Humidity;BMP_temperature;BMP_pressure;BME280_temperature;BME280_humidity;BME280_pressure;Samples;Min_cycle;Max_cycle;Signal;HPM_P1;HPM_P2
2021/10/14 00:03:00;;;;;;;;;;;;;;;11.22;61.19;99665.59;4891021;29;19979;-77
2021/10/14 00:05:26;;;;;;;;;;;;;;;11.16;61.26;99666.53;4862913;29;20331;-76
2021/10/14 00:08:12;;;;;;;;;;;;;;;11.13;61.70;99669.19;4895090;29;19931;-77
2021/10/14 00:10:37;;;;;;;;;;;;;;;11.08;61.74;99669.25;4895537;29;21133;-77
2021/10/14 00:13:15;;;;;;;;;;;;;;;11.02;61.85;99663.25;4875777;29;19939;-78
2021/10/14 00:15:49;;;;;;;;;;;;;;;10.96;61.84;99666.78;4880268;29;19923;-76
2021/10/14 00:18:41;;;;;;;;;;;;;;;10.96;61.78;99667.66;4894888;29;20641;-77
2021/10/14 00:21:07;;;;;;;;;;;;;;;11.02;62.10;99666.72;4876812;29;19935;-77
2021/10/14 00:23:32;;;;;;;;;;;;;;;10.98;62.11;99654.59;4861907;29;19935;-77
2021/10/14 00:25:58;;;;;;;;;;;;;;;11.00;62.32;99658.94;4877033;29;19932;-76
2021/10/14 00:28:24;;;;;;;;;;;;;;;11.05;62.40;99655.38;4877548;29;19998;-78
2021/10/14 00:30:50;;;;;;;;;;;;;;;11.11;61.99;99652.69;4867043;29;19939;-75
2021/10/14 00:33:15;;;;;;;;;;;;;;;11.11;61.94;99643.16;4867226;29;20362;-77
2021/10/14 00:35:41;;;;;;;;;;;;;;;11.11;61.84;99647.50;4897915;29;19974;-77
2021/10/14 00:38:07;;;;;;;;;;;;;;;11.10;62.20;99653.59;4897417;29;19928;-77
2021/10/14 00:40:32;;;;;;;;;;;;;;;11.10;62.25;99645.78;4893936;29;19969;-76
2021/10/14 00:42:58;;;;;;;;;;;;;;;11.09;61.83;99646.66;4893242;29;19976;-76
2021/10/14 00:45:23;;;;;;;;;;;;;;;11.08;61.98;99643.19;4893215;29;20300;-77
2021/10/14 00:47:49;;;;;;;;;;;;;;;11.05;62.04;99638.03;4865354;29;19923;-77
2021/10/14 00:50:14;;;;;;;;;;;;;;;10.96;62.30;99631.22;4872856;29;20065;-77
2021/10/14 00:52:41;;;;;;;;;;;;;;;10.92;62.05;99626.91;4884423;29;19908;-76
2021/10/14 00:55:07;;;;;;;;;;;;;;;10.84;62.41;99619.22;4884378;29;19983;-78
2021/10/14 00:57:33;;;;;;;;;;;;;;;10.73;62.47;99628.88;4900511;29;19923;-78
2021/10/14 00:59:59;;;;;;;;;;;;;;;10.66;62.60;99632.47;4899084;29;20003;-76
2021/10/14 01:02:24;;;;;;;;;;;;;;;10.59;62.72;99623.00;4899340;29;19923;-77
2021/10/14 01:04:53;;;;;;;;;;;;;;;10.47;62.59;99630.06;4898411;29;19982;-76
2021/10/14 01:07:18;;;;;;;;;;;;;;;10.35;62.25;99622.34;4890204;29;20368;-77
2021/10/14 01:09:44;;;;;;;;;;;;;;;10.27;62.68;99619.84;4880288;29;19927;-78
2021/10/14 01:12:09;;;;;;;;;;;;;;;10.18;63.04;99620.81;4885264;29;19955;-78
2021/10/14 01:14:35;;;;;;;;;;;;;;;10.12;63.03;99618.25;4887229;29;20022;-76
2021/10/14 01:17:00;;;;;;;;;;;;;;;10.07;63.41;99618.31;4906386;29;19967;-77
2021/10/14 01:19:26;;;;;;;;;;;;;;;10.05;63.32;99611.38;4875112;29;19928;-78
2021/10/14 01:21:52;;;;;;;;;;;;;;;9.99;63.18;99609.72;4899950;29;20345;-77
2021/10/14 01:24:18;;;;;;;;;;;;;;;9.92;63.30;99616.72;4887679;29;19932;-77
2021/10/14 01:26:43;;;;;;;;;;;;;;;9.86;63.35;99613.31;4908592;29;19935;-78
2021/10/14 01:29:09;;;;;;;;;;;;;;;9.77;63.43;99619.44;4900273;29;19995;-76
2021/10/14 01:31:35;;;;;;;;;;;;;;;9.77;63.56;99616.84;4908549;29;20021;-77
2021/10/14 01:34:01;;;;;;;;;;;;;;;9.75;63.42;99621.19;4910894;29;19941;-77
2021/10/14 01:36:26;;;;;;;;;;;;;;;9.73;63.56;99621.19;4899969;29;19935;-79
2021/10/14 01:38:52;;;;;;;;;;;;;;;9.74;63.62;99614.28;4902019;29;19911;-79
2021/10/14 01:41:38;;;;;;;;;;;;;;;9.72;63.55;99616.03;4885324;29;19923;-78
2021/10/14 01:44:46;;;;;;;;;;;;;;;9.67;63.89;99617.78;4893724;29;19939;-78
2021/10/14 01:47:12;;;;;;;;;;;;;;;9.67;64.01;99613.47;4903039;29;19923;-77
2021/10/14 01:49:37;;;;;;;;;;;;;;;9.68;63.67;99619.50;4906186;29;19939;-76
2021/10/14 01:52:03;;;;;;;;;;;;;;;9.68;64.04;99614.31;4909485;29;19927;-78
2021/10/14 01:54:28;;;;;;;;;;;;;;;9.67;63.93;99610.00;4914484;29;19907;-78
2021/10/14 01:56:54;;;;;;;;;;;;;;;9.65;63.83;99615.22;4876474;29;19915;-78
2021/10/14 01:59:19;;;;;;;;;;;;;;;9.64;64.03;99616.94;4916070;29;19939;-78
2021/10/14 02:01:49;;;;;;;;;;;;;;;9.64;64.03;99614.34;4914709;29;19923;-78
2021/10/14 02:04:14;;;;;;;;;;;;;;;9.70;63.96;99609.97;4879927;29;20010;-78
2021/10/14 02:06:40;;;;;;;;;;;;;;;9.75;64.02;99613.41;4908613;29;19952;-77
2021/10/14 02:09:05;;;;;;;;;;;;;;;9.77;63.95;99614.25;4881725;29;19923;-78
2021/10/14 02:11:31;;;;;;;;;;;;;;;9.82;64.29;99612.44;4880964;29;19930;-78
2021/10/14 02:14:02;;;;;;;;;;;;;;;9.87;64.00;99612.44;4890831;29;19915;-79
2021/10/14 02:16:28;;;;;;;;;;;;;;;9.94;64.18;99612.34;4898878;29;20007;-78
2021/10/14 02:18:53;;;;;;;;;;;;;;;10.00;63.90;99611.44;4883189;29;19947;-78
2021/10/14 02:21:19;;;;;;;;;;;;;;;10.02;63.53;99603.63;4916157;29;19916;-77
2021/10/14 02:23:44;;;;;;;;;;;;;;;10.03;63.83;99602.75;4915172;29;19931;-77
2021/10/14 02:26:10;;;;;;;;;;;;;;;10.02;63.53;99601.03;4911868;29;20011;-77
2021/10/14 02:28:36;;;;;;;;;;;;;;;10.00;64.08;99595.84;4831055;29;1856767;-77
2021/10/14 02:31:01;;;;;;;;;;;;;;;9.97;63.54;99595.84;4878233;29;19923;-74
2021/10/14 02:33:27;;;;;;;;;;;;;;;9.95;63.86;99597.59;4879283;29;20032;-77
2021/10/14 02:35:52;;;;;;;;;;;;;;;9.87;64.09;99597.69;4866417;29;19947;-79
2021/10/14 02:38:18;;;;;;;;;;;;;;;9.87;64.04;99595.09;4895900;29;19967;-78
2021/10/14 02:40:44;;;;;;;;;;;;;;;9.89;63.98;99597.69;4878726;29;19928;-76
2021/10/14 02:43:09;;;;;;;;;;;;;;;9.93;64.04;99589.84;4877586;29;20389;-78
2021/10/14 02:45:35;;;;;;;;;;;;;;;9.95;64.25;99592.41;4855982;29;19928;-77
2021/10/14 02:48:00;;;;;;;;;;;;;;;9.97;64.12;99601.06;4877964;29;19924;-78
2021/10/14 02:50:26;;;;;;;;;;;;;;;10.01;63.87;99604.50;4877050;29;19924;-76
2021/10/14 02:52:51;;;;;;;;;;;;;;;10.02;64.00;99596.69;4894234;29;19945;-76
2021/10/14 02:55:17;;;;;;;;;;;;;;;10.03;63.83;99605.38;4878551;29;19928;-76
2021/10/14 02:57:42;;;;;;;;;;;;;;;10.04;63.88;99597.53;4898716;29;19935;-75
2021/10/14 03:00:08;;;;;;;;;;;;;;;10.05;63.83;99600.97;4902120;29;19923;-78
2021/10/14 03:02:35;;;;;;;;;;;;;;;9.98;63.59;99601.94;4879761;29;19924;-78
2021/10/14 03:05:01;;;;;;;;;;;;;;;9.85;64.45;99599.44;4895081;29;19935;-76
2021/10/14 03:07:26;;;;;;;;;;;;;;;9.89;64.04;99598.53;4880350;29;19934;-76
2021/10/14 03:09:52;;;;;;;;;;;;;;;9.92;64.18;99598.50;4895732;29;19923;-78
2021/10/14 03:12:18;;;;;;;;;;;;;;;9.93;64.00;99597.63;4879919;29;19924;-76
2021/10/14 03:14:43;;;;;;;;;;;;;;;9.99;64.60;99590.66;4879449;29;20038;-78
2021/10/14 03:17:09;;;;;;;;;;;;;;;10.02;64.29;99588.03;4879081;29;19923;-77
2021/10/14 03:19:35;;;;;;;;;;;;;;;10.03;64.08;99585.41;4879080;29;19924;-76
2021/10/14 03:22:00;;;;;;;;;;;;;;;9.91;64.12;99581.19;4886936;29;20387;-77
2021/10/14 03:24:26;;;;;;;;;;;;;;;9.85;63.75;99573.44;4877613;29;20043;-76
2021/10/14 03:26:52;;;;;;;;;;;;;;;9.79;64.29;99581.31;4901157;29;19923;-76
2021/10/14 03:29:18;;;;;;;;;;;;;;;9.79;64.42;99574.38;4882748;29;19946;-78
2021/10/14 03:31:43;;;;;;;;;;;;;;;9.75;63.89;99571.81;4900319;29;19924;-76
2021/10/14 03:34:09;;;;;;;;;;;;;;;9.65;64.32;99574.50;4884827;29;19923;-78
2021/10/14 03:36:35;;;;;;;;;;;;;;;9.60;64.60;99575.41;4878021;29;19931;-77
2021/10/14 03:39:00;;;;;;;;;;;;;;;9.58;64.08;99574.56;4876707;29;19923;-80
2021/10/14 03:41:26;;;;;;;;;;;;;;;9.58;64.21;99570.25;4860557;29;20030;-78
2021/10/14 03:43:52;;;;;;;;;;;;;;;9.60;64.58;99570.22;4860246;29;19931;-75
2021/10/14 03:46:17;;;;;;;;;;;;;;;9.62;64.39;99569.31;4878156;29;19928;-76
2021/10/14 03:48:43;;;;;;;;;;;;;;;9.55;63.80;99565.06;4859751;29;19930;-76
2021/10/14 03:51:08;;;;;;;;;;;;;;;9.47;64.17;99559.06;4874351;29;20410;-77
2021/10/14 03:53:34;;;;;;;;;;;;;;;9.56;64.68;99560.72;4875935;29;19924;-77
2021/10/14 03:55:59;;;;;;;;;;;;;;;9.57;64.45;99558.13;4878155;29;19972;-77
2021/10/14 03:58:25;;;;;;;;;;;;;;;9.54;64.61;99546.88;4877726;29;19924;-76
2021/10/14 04:00:50;;;;;;;;;;;;;;;9.50;64.07;99546.91;4862429;29;20200;-77
2021/10/14 04:03:37;;;;;;;;;;;;;;;9.54;64.89;99537.38;4875524;29;19984;-78
2021/10/14 04:06:06;;;;;;;;;;;;;;;9.56;64.74;99540.81;4856071;29;19928;-76
2021/10/14 04:08:34;;;;;;;;;;;;;;;9.60;64.23;99534.69;4875481;29;19979;-77
2021/10/14 04:11:00;;;;;;;;;;;;;;;9.46;64.45;99534.84;4876214;29;19924;-77
2021/10/14 04:13:25;;;;;;;;;;;;;;;9.49;64.90;99527.00;4876594;29;19924;-76
2021/10/14 04:15:53;;;;;;;;;;;;;;;9.58;65.35;99530.41;4874247;29;19930;-76
2021/10/14 04:18:28;;;;;;;;;;;;;;;9.64;64.63;99515.63;4860165;29;20440;-74
2021/10/14 04:20:53;;;;;;;;;;;;;;;9.77;64.81;99512.91;4860018;29;19924;-76
2021/10/14 04:23:20;;;;;;;;;;;;;;;9.83;64.99;99512.81;4853130;29;19923;-75
2021/10/14 04:25:52;;;;;;;;;;;;;;;9.87;64.04;99506.72;4875192;29;20300;-76
2021/10/14 04:28:20;;;;;;;;;;;;;;;9.81;64.03;99506.81;4872961;29;19998;-76
2021/10/14 04:31:07;;;;;;;;;;;;;;;9.80;64.27;99510.28;4878733;29;19971;-77
2021/10/14 04:33:41;;;;;;;;;;;;;;;9.88;64.32;99505.84;4869321;29;19923;-76
2021/10/14 04:36:14;;;;;;;;;;;;;;;9.85;63.85;99511.06;4877719;29;19934;-77
2021/10/14 04:38:58;;;;;;;;;;;;;;;9.66;63.55;99507.81;4856237;29;19928;-76
2021/10/14 04:41:24;;;;;;;;;;;;;;;9.53;63.77;99499.28;4871337;29;19931;-75
2021/10/14 04:43:49;;;;;;;;;;;;;;;9.47;64.18;99496.72;4883530;29;19947;-75
2021/10/14 04:46:15;;;;;;;;;;;;;;;9.49;64.17;99506.22;4893317;29;19939;-78
2021/10/14 04:48:40;;;;;;;;;;;;;;;9.49;63.47;99498.44;4867428;29;19958;-77
2021/10/14 04:51:06;;;;;;;;;;;;;;;9.45;64.14;99499.34;4877100;29;19934;-77
2021/10/14 04:53:31;;;;;;;;;;;;;;;9.48;63.90;99495.84;4893850;29;20472;-78
2021/10/14 04:55:57;;;;;;;;;;;;;;;9.58;64.41;99494.91;4893906;29;19923;-76
2021/10/14 04:58:23;;;;;;;;;;;;;;;9.62;63.33;99496.56;4893876;29;20423;-78
2021/10/14 05:00:48;;;;;;;;;;;;;;;9.63;63.45;99497.47;4862811;29;20395;-78
2021/10/14 05:03:14;;;;;;;;;;;;;;;9.64;62.79;99493.97;4898664;29;19953;-78
2021/10/14 05:05:39;;;;;;;;;;;;;;;9.69;63.51;99506.91;4903686;29;20367;-77
2021/10/14 05:08:06;;;;;;;;;;;;;;;9.70;62.57;99512.13;4896798;29;19975;-76
2021/10/14 05:10:33;;;;;;;;;;;;;;;9.67;63.09;99509.53;4894607;29;20277;-76
2021/10/14 05:12:58;;;;;;;;;;;;;;;9.67;63.11;99501.75;4861145;29;19930;-75
2021/10/14 05:15:24;;;;;;;;;;;;;;;9.66;63.35;99497.44;4876184;29;19928;-77
2021/10/14 05:17:50;;;;;;;;;;;;;;;9.75;62.96;99486.06;4882967;29;19923;-77
2021/10/14 05:20:15;;;;;;;;;;;;;;;9.75;62.96;99486.06;4886475;29;20007;-77
2021/10/14 05:22:41;;;;;;;;;;;;;;;9.79;62.88;99482.56;4884979;29;21165;-76
2021/10/14 05:25:07;;;;;;;;;;;;;;;9.69;62.99;99479.22;4881382;29;20030;-77
2021/10/14 05:27:34;;;;;;;;;;;;;;;9.73;62.84;99475.69;4876673;29;19923;-76
2021/10/14 05:29:59;;;;;;;;;;;;;;;9.80;63.05;99477.34;4875980;29;19927;-77
2021/10/14 05:32:25;;;;;;;;;;;;;;;9.82;63.00;99476.47;4876201;29;19962;-78
2021/10/14 05:34:50;;;;;;;;;;;;;;;9.90;62.26;99477.25;4876251;29;19923;-77
2021/10/14 05:37:16;;;;;;;;;;;;;;;9.90;62.63;99475.50;4892226;29;19927;-77
2021/10/14 05:39:42;;;;;;;;;;;;;;;9.95;61.51;99465.94;4892168;29;20022;-76
2021/10/14 05:42:07;;;;;;;;;;;;;;;9.72;61.89;99453.19;4876801;29;19963;-77
2021/10/14 05:44:32;;;;;;;;;;;;;;;9.75;62.42;99467.88;4892329;29;20312;-76
2021/10/14 05:46:58;;;;;;;;;;;;;;;9.75;62.24;99471.34;4893237;29;20315;-76
2021/10/14 05:49:24;;;;;;;;;;;;;;;9.78;61.99;99465.25;4859810;29;19975;-77
2021/10/14 05:51:49;;;;;;;;;;;;;;;9.82;62.74;99472.13;4894778;29;20018;-77
2021/10/14 05:54:15;;;;;;;;;;;;;;;9.79;62.36;99477.38;4893149;29;19924;-79
2021/10/14 05:56:40;;;;;;;;;;;;;;;9.90;62.51;99475.50;4892413;29;19923;-77
2021/10/14 05:59:06;;;;;;;;;;;;;;;9.85;61.89;99466.03;4875225;29;19972;-77
2021/10/14 06:01:31;;;;;;;;;;;;;;;9.93;61.93;99479.84;4892856;29;19923;-77
2021/10/14 06:03:57;;;;;;;;;;;;;;;9.94;61.61;99469.41;4874059;29;19953;-78
2021/10/14 06:06:24;;;;;;;;;;;;;;;9.97;61.50;99475.44;4892197;29;19928;-77
2021/10/14 06:08:50;;;;;;;;;;;;;;;9.94;61.30;99464.19;4876234;29;19923;-78
2021/10/14 06:11:15;;;;;;;;;;;;;;;10.01;61.46;99461.53;4869458;29;19946;-77
2021/10/14 06:13:41;;;;;;;;;;;;;;;10.08;61.14;99458.84;4877172;29;19951;-78
2021/10/14 06:16:07;;;;;;;;;;;;;;;10.12;60.50;99466.59;4877370;29;19942;-78
2021/10/14 06:18:34;;;;;;;;;;;;;;;10.15;60.74;99458.78;4892339;29;19930;-77
2021/10/14 06:20:59;;;;;;;;;;;;;;;10.12;60.67;99464.00;4876936;29;19923;-76
2021/10/14 06:23:25;;;;;;;;;;;;;;;10.07;60.04;99462.31;4891943;29;19955;-76
2021/10/14 06:25:50;;;;;;;;;;;;;;;10.05;60.52;99455.41;4893051;29;19927;-76
2021/10/14 06:28:16;;;;;;;;;;;;;;;10.06;60.39;99451.91;4892802;29;19947;-77
2021/10/14 06:30:41;;;;;;;;;;;;;;;10.09;60.24;99450.16;4860822;29;19924;-78
2021/10/14 06:33:07;;;;;;;;;;;;;;;10.12;59.75;99448.41;4859348;29;20203;-77
2021/10/14 06:35:32;;;;;;;;;;;;;;;10.24;60.00;99443.91;4876208;29;19930;-79
2021/10/14 06:37:58;;;;;;;;;;;;;;;10.32;60.23;99461.13;4876611;29;19935;-77
2021/10/14 06:40:24;;;;;;;;;;;;;;;10.27;59.73;99452.53;4852156;29;19954;-78
2021/10/14 06:42:49;;;;;;;;;;;;;;;10.27;59.15;99456.00;4899562;29;20010;-78
2021/10/14 06:45:15;;;;;;;;;;;;;;;10.23;59.80;99447.41;4881802;29;20071;-79
2021/10/14 06:47:41;;;;;;;;;;;;;;;10.37;59.27;99443.75;4865196;29;19923;-79
2021/10/14 06:50:08;;;;;;;;;;;;;;;10.18;58.70;99437.91;4879262;29;19935;-77
2021/10/14 06:52:34;;;;;;;;;;;;;;;10.07;59.18;99435.44;4871065;29;19936;-81
2021/10/14 06:54:59;;;;;;;;;;;;;;;10.10;59.45;99441.50;4878706;29;20589;-77
2021/10/14 06:57:25;;;;;;;;;;;;;;;10.09;58.86;99431.09;4893400;29;19928;-76
2021/10/14 06:59:51;;;;;;;;;;;;;;;10.06;59.26;99438.91;4875138;29;20392;-78
2021/10/14 07:02:24;;;;;;;;;;;;;;;9.98;58.94;99441.63;4901751;29;19955;-77
2021/10/14 07:04:51;;;;;;;;;;;;;;;10.00;59.63;99445.06;4883067;29;19924;-77
2021/10/14 07:07:17;;;;;;;;;;;;;;;10.13;59.35;99440.56;4900397;29;19923;-77
2021/10/14 07:09:42;;;;;;;;;;;;;;;10.10;59.31;99430.22;4919398;29;19990;-79
2021/10/14 07:12:10;;;;;;;;;;;;;;;10.20;59.28;99430.94;4919729;29;19935;-79
2021/10/14 07:14:37;;;;;;;;;;;;;;;10.36;59.03;99434.22;4898734;29;20025;-77
2021/10/14 07:17:05;;;;;;;;;;;;;;;10.46;59.03;99437.56;4891356;29;19930;-77
2021/10/14 07:19:31;;;;;;;;;;;;;;;10.38;57.91;99433.34;4896659;29;20017;-78
2021/10/14 07:21:56;;;;;;;;;;;;;;;10.31;58.34;99428.22;4896501;29;20471;-78
2021/10/14 07:24:24;;;;;;;;;;;;;;;10.27;58.96;99442.13;4897931;29;19935;-78
2021/10/14 07:26:50;;;;;;;;;;;;;;;10.28;58.72;99446.44;4911166;29;19928;-78
2021/10/14 07:29:16;;;;;;;;;;;;;;;10.28;58.26;99444.72;4884826;29;19934;-76
2021/10/14 07:31:41;;;;;;;;;;;;;;;10.33;57.55;99448.13;4848084;29;19923;-76
2021/10/14 07:34:10;;;;;;;;;;;;;;;10.36;57.96;99437.69;4861516;29;19939;-77
2021/10/14 07:36:42;;;;;;;;;;;;;;;10.26;58.06;99443.88;4880425;29;20018;-78
2021/10/14 07:39:08;;;;;;;;;;;;;;;10.17;57.54;99442.25;4848918;29;19935;-78
2021/10/14 07:41:34;;;;;;;;;;;;;;;10.17;57.74;99439.66;4861135;29;19923;-79
2021/10/14 07:44:00;;;;;;;;;;;;;;;10.13;57.67;99440.56;4861582;29;19924;-77
2021/10/14 07:46:26;;;;;;;;;;;;;;;10.06;58.07;99446.72;4879548;29;20050;-79
2021/10/14 07:48:52;;;;;;;;;;;;;;;10.14;58.00;99438.84;4878350;29;20034;-78
2021/10/14 07:51:17;;;;;;;;;;;;;;;10.09;57.57;99434.56;4877880;29;20009;-76
2021/10/14 07:53:43;;;;;;;;;;;;;;;10.03;57.30;99431.19;4877066;29;19946;-78
2021/10/14 07:56:08;;;;;;;;;;;;;;;9.97;57.87;99426.91;4875753;29;20463;-79
2021/10/14 07:58:34;;;;;;;;;;;;;;;10.03;57.20;99407.78;4876505;29;20022;-79
2021/10/14 08:01:00;;;;;;;;;;;;;;;10.09;57.38;99408.56;4861591;29;19967;-78
2021/10/14 08:03:25;;;;;;;;;;;;;;;10.27;57.81;99417.00;4876567;29;19963;-77
2021/10/14 08:05:52;;;;;;;;;;;;;;;10.37;57.21;99410.78;4845094;29;19949;-78
2021/10/14 08:08:17;;;;;;;;;;;;;;;10.40;56.21;99417.72;4859512;29;20069;-77
2021/10/14 08:10:43;;;;;;;;;;;;;;;10.45;57.15;99415.91;4878678;29;20076;-78
2021/10/14 08:13:13;;;;;;;;;;;;;;;10.59;56.11;99418.31;4877255;29;19931;-78
2021/10/14 08:15:48;;;;;;;;;;;;;;;10.66;56.14;99414.72;4874086;29;19930;-78
2021/10/14 08:18:14;;;;;;;;;;;;;;;10.77;55.94;99406.75;4874343;29;19924;-77
2021/10/14 08:20:40;;;;;;;;;;;;;;;10.84;55.49;99403.16;4874867;29;19924;-77
2021/10/14 08:23:06;;;;;;;;;;;;;;;11.04;55.48;99415.00;4873947;29;19996;-77
2021/10/14 08:25:32;;;;;;;;;;;;;;;11.04;54.73;99414.13;4875552;29;19979;-77
2021/10/14 08:27:58;;;;;;;;;;;;;;;11.09;56.07;99409.69;4859790;29;19967;-78
2021/10/14 08:30:23;;;;;;;;;;;;;;;11.11;55.34;99411.41;4858543;29;19992;-77
2021/10/14 08:32:52;;;;;;;;;;;;;;;11.03;55.15;99408.06;4874646;29;19924;-77
2021/10/14 08:35:17;;;;;;;;;;;;;;;10.98;55.13;99409.88;4875354;29;19987;-77
2021/10/14 08:37:43;;;;;;;;;;;;;;;11.01;55.55;99415.03;4875020;29;19923;-77
2021/10/14 08:40:08;;;;;;;;;;;;;;;10.97;55.50;99408.16;4859259;29;19935;-77
2021/10/14 08:42:34;;;;;;;;;;;;;;;10.92;55.29;99410.84;4876380;29;20062;-77
2021/10/14 08:45:04;;;;;;;;;;;;;;;10.95;55.20;99409.94;4844260;29;20023;-78
2021/10/14 08:47:30;;;;;;;;;;;;;;;11.02;55.38;99416.75;4871858;29;20403;-77
2021/10/14 08:49:57;;;;;;;;;;;;;;;11.04;55.03;99404.56;4874405;29;19928;-78
2021/10/14 08:52:23;;;;;;;;;;;;;;;11.07;55.47;99403.66;4859193;29;20026;-78
2021/10/14 08:54:48;;;;;;;;;;;;;;;11.17;55.67;99401.75;4873711;29;20030;-78
2021/10/14 08:57:15;;;;;;;;;;;;;;;11.20;55.43;99399.09;4874599;29;19963;-79
2021/10/14 08:59:41;;;;;;;;;;;;;;;11.18;54.59;99393.94;4886221;29;19959;-77
2021/10/14 09:02:13;;;;;;;;;;;;;;;11.11;54.92;99397.50;4899374;29;19943;-80
2021/10/14 09:04:39;;;;;;;;;;;;;;;11.00;54.79;99398.56;4893235;29;19963;-78
2021/10/14 09:07:22;;;;;;;;;;;;;;;11.15;55.74;99393.97;4879917;29;21100;-78
2021/10/14 09:09:51;;;;;;;;;;;;;;;11.36;55.67;99389.25;4873999;29;19935;-80
2021/10/14 09:12:17;;;;;;;;;;;;;;;11.49;55.07;99384.69;4862297;29;20052;-80
2021/10/14 09:15:06;;;;;;;;;;;;;;;11.53;54.92;99381.97;4891029;29;19919;-77
2021/10/14 09:17:54;;;;;;;;;;;;;;;11.32;54.06;99383.25;4831186;29;19923;-77
2021/10/14 09:20:21;;;;;;;;;;;;;;;11.15;55.31;99380.97;4866625;29;19945;-76
2021/10/14 09:23:00;;;;;;;;;;;;;;;11.09;55.68;99387.13;4875388;29;19923;-77
2021/10/14 09:25:46;;;;;;;;;;;;;;;11.10;55.54;99388.84;4875022;29;19934;-79
2021/10/14 09:28:18;;;;;;;;;;;;;;;11.05;55.19;99382.00;4857834;29;20406;-77
2021/10/14 09:30:43;;;;;;;;;;;;;;;10.88;55.08;99383.16;4875947;29;20415;-78
2021/10/14 09:33:28;;;;;;;;;;;;;;;10.78;56.08;99385.03;4843119;29;19928;-77
2021/10/14 09:36:10;;;;;;;;;;;;;;;10.71;56.38;99386.00;4856673;29;19923;-77
2021/10/14 09:38:36;;;;;;;;;;;;;;;10.63;55.99;99390.50;4873013;29;20047;-76
2021/10/14 09:41:09;;;;;;;;;;;;;;;10.45;56.75;99389.91;4857446;29;20018;-77
2021/10/14 09:43:34;;;;;;;;;;;;;;;10.41;56.97;99383.03;4884861;29;20415;-77
2021/10/14 09:46:00;;;;;;;;;;;;;;;10.52;57.88;99383.72;4872931;29;19963;-77
2021/10/14 09:48:26;;;;;;;;;;;;;;;10.66;57.75;99387.84;4856202;29;20511;-77
2021/10/14 09:50:53;;;;;;;;;;;;;;;10.60;57.52;99385.34;4857058;29;20060;-78
2021/10/14 09:53:20;;;;;;;;;;;;;;;10.55;57.68;99388.88;4873902;29;20404;-77
2021/10/14 09:55:47;;;;;;;;;;;;;;;10.53;57.43;99390.63;4873151;29;19927;-77
2021/10/14 09:58:13;;;;;;;;;;;;;;;10.27;57.38;99379.72;4872540;29;20679;-76
2021/10/14 10:00:42;;;;;;;;;;;;;;;10.17;58.17;99377.25;4872677;29;20349;-77
2021/10/14 10:03:16;;;;;;;;;;;;;;;10.13;58.39;99378.19;4873455;29;20308;-78
2021/10/14 10:05:49;;;;;;;;;;;;;;;10.14;58.99;99372.09;4854239;29;19967;-76
2021/10/14 10:08:32;;;;;;;;;;;;;;;10.07;59.02;99373.94;4875121;29;19931;-78
2021/10/14 10:11:00;;;;;;;;;;;;;;;10.05;59.78;99377.41;4875373;29;19935;-77
2021/10/14 10:13:27;;;;;;;;;;;;;;;9.98;60.13;99374.03;4875745;29;20439;-77
2021/10/14 10:15:55;;;;;;;;;;;;;;;9.87;59.61;99373.34;4873229;29;19924;-78
2021/10/14 10:18:26;;;;;;;;;;;;;;;9.88;60.25;99378.50;4880050;29;19935;-79
2021/10/14 10:20:56;;;;;;;;;;;;;;;9.78;60.20;99380.34;4881971;29;19972;-77
2021/10/14 10:23:40;;;;;;;;;;;;;;;9.72;60.83;99376.97;4881636;29;19924;-77
2021/10/14 10:26:05;;;;;;;;;;;;;;;9.72;61.17;99376.97;4877106;29;19995;-78
2021/10/14 10:28:38;;;;;;;;;;;;;;;9.63;60.65;99372.75;4883735;29;19979;-77
2021/10/14 10:31:06;;;;;;;;;;;;;;;9.58;60.87;99379.75;4879824;29;20056;-79
2021/10/14 10:33:50;;;;;;;;;;;;;;;9.71;62.16;99375.25;4871035;29;19994;-77
2021/10/14 10:36:38;;;;;;;;;;;;;;;9.93;61.80;99368.91;4885186;29;19923;-78
2021/10/14 10:39:06;;;;;;;;;;;;;;;9.98;61.27;99368.00;4882769;29;19923;-77
2021/10/14 10:41:34;;;;;;;;;;;;;;;9.98;61.35;99357.59;4868988;29;19930;-76
2021/10/14 10:44:00;;;;;;;;;;;;;;;9.92;61.15;99358.56;4903875;29;19916;-77
2021/10/14 10:46:30;;;;;;;;;;;;;;;10.04;61.39;99360.97;4899278;29;19979;-76
2021/10/14 10:49:16;;;;;;;;;;;;;;;10.05;60.83;99354.91;4871279;29;20301;-77
2021/10/14 10:51:41;;;;;;;;;;;;;;;9.87;60.62;99358.59;4880220;29;19932;-77
2021/10/14 10:54:27;;;;;;;;;;;;;;;9.90;60.58;99352.50;4914284;29;20115;-77
2021/10/14 10:56:55;;;;;;;;;;;;;;;9.87;60.59;99350.78;4910130;29;19924;-75
2021/10/14 10:59:21;;;;;;;;;;;;;;;9.88;61.38;99352.50;4883953;29;19923;-78
2021/10/14 11:01:46;;;;;;;;;;;;;;;9.93;60.84;99352.47;4898984;29;20083;-77
2021/10/14 11:04:13;;;;;;;;;;;;;;;9.75;60.63;99364.81;4877886;29;20543;-78
2021/10/14 11:09:42;;;;;;;;;;;;;;;9.82;61.58;99357.78;4872639;29;19931;-77
2021/10/14 11:12:17;;;;;;;;;;;;;;;9.93;62.00;99349.88;4879692;29;20011;-76
2021/10/14 11:14:43;;;;;;;;;;;;;;;9.87;61.50;99353.38;4858459;29;19923;-78
2021/10/14 11:17:25;;;;;;;;;;;;;;;10.00;61.71;99348.03;4902344;29;19924;-77
2021/10/14 11:20:06;;;;;;;;;;;;;;;10.05;60.60;99349.69;4895472;29;19927;-76
2021/10/14 11:22:32;;;;;;;;;;;;;;;9.71;60.82;99318.09;4889395;29;20035;-77
2021/10/14 11:25:00;;;;;;;;;;;;;;;9.74;61.79;99338.84;4877636;29;19927;-77
2021/10/14 11:27:26;;;;;;;;;;;;;;;9.78;62.06;99346.56;4883025;29;19938;-77
2021/10/14 11:30:32;;;;;;;;;;;;;;;9.80;62.18;99352.63;4884033;29;19991;-77
2021/10/14 11:33:09;;;;;;;;;;;;;;;9.68;61.91;99351.91;4889237;29;19934;-75
2021/10/14 11:35:35;;;;;;;;;;;;;;;9.80;62.51;99344.81;4871782;29;19935;-76
2021/10/14 11:38:10;;;;;;;;;;;;;;;9.74;61.48;99339.69;4856923;29;19935;-76
2021/10/14 11:40:38;;;;;;;;;;;;;;;9.76;62.16;99337.94;4886428;29;20018;-76
2021/10/14 11:43:04;;;;;;;;;;;;;;;9.86;62.61;99336.06;4861106;29;20018;-77
2021/10/14 11:45:29;;;;;;;;;;;;;;;9.79;62.02;99337.06;4875815;29;20404;-76
2021/10/14 11:47:57;;;;;;;;;;;;;;;9.73;61.97;99331.94;4877054;29;19927;-77
2021/10/14 11:50:24;;;;;;;;;;;;;;;9.69;62.28;99330.25;4878077;29;19924;-79
2021/10/14 11:53:27;;;;;;;;;;;;;;;9.70;62.23;99327.66;4862989;29;19931;-79
2021/10/14 11:56:04;;;;;;;;;;;;;;;9.53;62.56;99327.84;4884280;29;20373;-76
2021/10/14 11:58:40;;;;;;;;;;;;;;;9.40;62.86;99328.84;4886700;29;19916;-77
2021/10/14 12:01:12;;;;;;;;;;;;;;;9.27;62.96;99326.41;4883431;29;20079;-77
2021/10/14 12:03:54;;;;;;;;;;;;;;;9.39;63.60;99329.72;4882604;29;19958;-78
2021/10/14 12:06:21;;;;;;;;;;;;;;;9.36;63.22;99319.41;4880977;29;19916;-78
2021/10/14 12:08:48;;;;;;;;;;;;;;;9.41;62.75;99321.06;4869739;29;19932;-79
2021/10/14 12:11:22;;;;;;;;;;;;;;;9.40;63.65;99318.47;4853950;29;19923;-77
2021/10/14 12:13:55;;;;;;;;;;;;;;;9.33;62.98;99313.38;4898261;29;19923;-78
2021/10/14 12:16:36;;;;;;;;;;;;;;;9.24;63.43;99320.41;4875830;29;19924;-79
2021/10/14 12:19:23;;;;;;;;;;;;;;;9.22;63.32;99311.78;4876346;29;19931;-78
2021/10/14 12:21:52;;;;;;;;;;;;;;;9.07;63.78;99313.63;4851203;29;19924;-78
2021/10/14 12:24:23;;;;;;;;;;;;;;;9.01;63.66;99305.94;4864239;29;20601;-77
2021/10/14 12:26:54;;;;;;;;;;;;;;;9.06;64.81;99311.06;4848028;29;20014;-77
2021/10/14 12:29:26;;;;;;;;;;;;;;;9.17;64.60;99307.47;4884835;29;19991;-77
2021/10/14 12:32:07;;;;;;;;;;;;;;;9.15;64.57;99301.44;4882004;29;19930;-77
2021/10/14 12:34:53;;;;;;;;;;;;;;;8.99;64.35;99303.34;4884886;29;20252;-79
2021/10/14 12:37:23;;;;;;;;;;;;;;;8.93;64.42;99292.16;4905722;29;19923;-78
2021/10/14 12:40:07;;;;;;;;;;;;;;;8.84;65.08;99288.78;4915197;29;19923;-78
2021/10/14 12:42:55;;;;;;;;;;;;;;;8.81;64.57;99283.66;4914800;29;19938;-76
2021/10/14 12:45:27;;;;;;;;;;;;;;;8.92;65.63;99286.13;4903709;29;19947;-77
2021/10/14 12:47:54;;;;;;;;;;;;;;;8.86;65.79;99279.25;4863070;29;19930;-78
2021/10/14 12:50:41;;;;;;;;;;;;;;;8.96;65.17;99280.00;4898642;29;20012;-78
2021/10/14 12:53:17;;;;;;;;;;;;;;;8.79;65.12;99282.81;4896773;29;19931;-76
2021/10/14 12:56:12;;;;;;;;;;;;;;;8.73;65.86;99285.44;4891464;29;19933;-79
2021/10/14 12:58:38;;;;;;;;;;;;;;;8.79;65.37;99279.31;4850975;29;19928;-78
2021/10/14 13:01:18;;;;;;;;;;;;;;;8.84;66.22;99278.41;4880453;29;19935;-79
2021/10/14 13:03:46;;;;;;;;;;;;;;;8.81;65.87;99277.56;4881081;29;20368;-78
2021/10/14 13:06:12;;;;;;;;;;;;;;;8.65;65.46;99282.94;4874316;29;19966;-77